Search for airport 
image banner adimage banner ad
image banner ad

DAUT - Timimoun

Located in Timimoun, Algeria

ICAO - DAUT, IATA - TMX

Data provided by Airmate  

General information

Coordinates: N29°14'28" E0°17'1"
Elevation is 1026 feet MSL.
 
View others Airports in Adrar Province

Operational data

Open for public use
Current time UTC:
Current local time:
Weather
METAR: DAUT 222300Z 07008KT CAVOK 24/01 Q1018
TAF: TAF DAUT 222000Z 2221/2306 VRB02KT CAVOK
View NOTAMs / SUP AIP / TFR affecting this airport [VIEW]
Communications frequencies: [VIEW]

Runways:

RWY identifierQFULength (ft)Width (ft)SurfaceLDA (ft)
0656°9843148ASP
24236°9843148

Airport contact information

Address: Timimoun Algeria

Satellite view of DAUT